createdAt,value
2022-09-24T00:01:39.147Z,4.47
2022-09-24T00:04:10.013Z,5.95
2022-09-24T00:06:41.535Z,7.78
2022-09-24T00:09:09.051Z,3.80
2022-09-24T00:11:36.613Z,4.30
2022-09-24T00:14:03.817Z,3.75
2022-09-24T00:16:34.471Z,4.78
2022-09-24T00:19:03.357Z,5.68
2022-09-24T00:21:37.027Z,2.95
2022-09-24T00:24:08.406Z,4.75
2022-09-24T00:26:46.753Z,8.00
2022-09-24T00:29:17.092Z,5.60
2022-09-24T00:31:44.241Z,4.15
2022-09-24T00:34:11.277Z,5.75
2022-09-24T00:36:38.931Z,4.70
2022-09-24T00:39:06.773Z,5.43
2022-09-24T00:41:37.274Z,8.18
2022-09-24T00:44:43.505Z,3.50
2022-09-24T00:47:23.714Z,7.57
2022-09-24T00:49:51.404Z,5.53
2022-09-24T00:52:19.912Z,3.30
2022-09-24T00:54:47.610Z,9.23
2022-09-24T00:57:15.244Z,5.63
2022-09-24T00:59:44.153Z,9.38
2022-09-24T01:02:12.384Z,8.00
2022-09-24T01:04:43.171Z,4.60
2022-09-24T01:07:11.901Z,4.80
2022-09-24T01:09:39.701Z,4.13
2022-09-24T01:12:35.019Z,10.82
2022-09-24T01:15:33.575Z,7.57
2022-09-24T01:18:17.359Z,3.78
2022-09-24T01:21:05.970Z,7.20
2022-09-24T01:24:15.685Z,5.07
2022-09-24T01:26:56.967Z,4.40
2022-09-24T01:29:32.999Z,7.75
2022-09-24T01:32:07.953Z,3.53
2022-09-24T01:35:03.659Z,4.78
2022-09-24T01:37:34.734Z,6.47
2022-09-24T01:40:04.394Z,9.60
2022-09-24T01:42:33.700Z,5.88
2022-09-24T01:45:03.056Z,8.40
2022-09-24T01:47:35.258Z,12.32
2022-09-24T01:50:04.184Z,3.97
2022-09-24T01:52:38.961Z,6.38
2022-09-24T01:55:08.242Z,8.13
2022-09-24T01:57:42.494Z,4.18
2022-09-24T02:00:19.310Z,6.55
2022-09-24T02:03:11.982Z,7.20
2022-09-24T02:05:45.591Z,6.00
2022-09-24T02:08:17.907Z,7.63
2022-09-24T02:11:04.416Z,6.75
2022-09-24T02:13:40.013Z,7.70
2022-09-24T02:16:10.380Z,9.35
2022-09-24T02:18:42.997Z,7.57
2022-09-24T02:21:14.022Z,7.47
2022-09-24T02:23:47.755Z,11.40
2022-09-24T02:26:15.383Z,11.00
2022-09-24T02:28:43.248Z,10.27
2022-09-24T02:31:18.127Z,10.32
2022-09-24T02:34:08.265Z,10.90
2022-09-24T02:36:36.457Z,16.20
2022-09-24T02:39:03.697Z,12.10
2022-09-24T02:41:32.324Z,14.23
2022-09-24T02:44:01.277Z,9.85
2022-09-24T02:46:28.910Z,11.18
2022-09-24T02:48:56.020Z,12.63
2022-09-24T02:51:23.134Z,12.80
2022-09-24T02:53:50.713Z,14.48
2022-09-24T02:56:42.383Z,13.82
2022-09-24T02:59:38.616Z,9.98
2022-09-24T03:02:30.777Z,14.85
2022-09-24T03:05:26.263Z,10.38
2022-09-24T03:07:53.551Z,10.73
2022-09-24T03:10:21.088Z,10.32
2022-09-24T03:12:48.297Z,11.27
2022-09-24T03:15:15.549Z,9.70
2022-09-24T03:17:42.893Z,7.72
2022-09-24T03:20:10.391Z,11.70
2022-09-24T03:22:37.610Z,9.23
2022-09-24T03:25:05.160Z,8.10
2022-09-24T03:27:32.648Z,5.93
2022-09-24T03:30:18.187Z,8.55
2022-09-24T03:32:45.383Z,11.52
2022-09-24T03:35:12.815Z,7.57
2022-09-24T03:37:48.348Z,6.90
2022-09-24T03:40:16.460Z,5.45
2022-09-24T03:42:43.671Z,11.75
2022-09-24T03:45:10.975Z,7.38
2022-09-24T03:47:38.246Z,8.80
2022-09-24T03:50:05.937Z,7.53
2022-09-24T03:52:33.444Z,6.30
2022-09-24T03:55:01.687Z,6.55
2022-09-24T03:57:28.823Z,6.60
2022-09-24T03:59:56.245Z,4.70
2022-09-24T04:02:23.379Z,5.43
2022-09-24T04:04:50.918Z,7.68
2022-09-24T04:07:18.414Z,4.65
2022-09-24T04:09:45.687Z,5.03
2022-09-24T04:12:13.580Z,6.25
2022-09-24T04:14:41.061Z,7.68
2022-09-24T04:17:08.196Z,6.95
2022-09-24T04:19:35.387Z,4.90
2022-09-24T04:22:02.579Z,8.18
2022-09-24T04:24:29.744Z,6.97
2022-09-24T04:26:56.988Z,4.57
2022-09-24T04:29:24.251Z,9.23
2022-09-24T04:31:52.545Z,3.50
2022-09-24T04:34:21.235Z,5.38
2022-09-24T04:36:48.460Z,10.00
2022-09-24T04:39:17.315Z,5.78
2022-09-24T04:41:44.741Z,4.57
2022-09-24T04:44:13.669Z,7.53
2022-09-24T04:46:41.014Z,5.50
2022-09-24T04:49:10.159Z,5.88
2022-09-24T04:51:37.506Z,5.68
2022-09-24T04:54:04.849Z,6.40
2022-09-24T04:56:32.365Z,12.20
2022-09-24T04:58:59.451Z,6.10
2022-09-24T05:01:27.133Z,5.68
2022-09-24T05:03:54.394Z,6.05
2022-09-24T05:06:21.657Z,6.25
2022-09-24T05:08:48.814Z,7.60
2022-09-24T05:11:15.986Z,7.32
2022-09-24T05:13:43.121Z,8.43
2022-09-24T05:16:10.332Z,7.85
2022-09-24T05:18:37.585Z,7.05
2022-09-24T05:21:05.263Z,8.82
2022-09-24T05:23:32.550Z,4.65
2022-09-24T05:26:17.957Z,8.35
2022-09-24T05:28:45.020Z,6.93
2022-09-24T05:31:12.337Z,9.57
2022-09-24T05:33:39.536Z,5.10
2022-09-24T05:36:07.080Z,8.85
2022-09-24T05:38:34.423Z,4.35
2022-09-24T05:41:06.573Z,6.55
2022-09-24T05:43:33.780Z,5.75
2022-09-24T05:46:01.142Z,6.53
2022-09-24T05:48:28.546Z,4.70
2022-09-24T05:50:55.905Z,3.75
2022-09-24T05:53:23.771Z,8.82
2022-09-24T05:55:51.189Z,4.22
2022-09-24T05:58:18.817Z,8.18
2022-09-24T06:00:52.769Z,2.95
2022-09-24T06:03:21.614Z,8.55
2022-09-24T06:05:56.638Z,7.75
2022-09-24T06:08:24.657Z,6.32
2022-09-24T06:10:51.919Z,5.47
2022-09-24T06:13:21.252Z,7.20
2022-09-24T06:15:48.486Z,7.35
2022-09-24T06:18:19.079Z,6.68
2022-09-24T06:20:52.155Z,4.97
2022-09-24T06:23:19.591Z,6.65
2022-09-24T06:25:51.659Z,4.03
2022-09-24T06:28:18.893Z,4.80
2022-09-24T06:30:53.783Z,4.93
2022-09-24T06:33:21.739Z,9.75
2022-09-24T06:35:48.992Z,4.30
2022-09-24T06:38:18.321Z,4.72
2022-09-24T06:40:48.860Z,3.60
2022-09-24T06:43:17.855Z,6.43
2022-09-24T06:45:45.763Z,4.57
2022-09-24T06:48:14.762Z,7.93
2022-09-24T06:50:58.789Z,9.60
2022-09-24T06:53:26.108Z,4.75
2022-09-24T06:55:58.106Z,4.47
2022-09-24T06:58:25.697Z,5.83
2022-09-24T07:01:00.162Z,3.03
2022-09-24T07:03:29.174Z,8.93
2022-09-24T07:06:01.589Z,2.90
2022-09-24T07:08:28.828Z,2.70
2022-09-24T07:10:57.944Z,3.80
2022-09-24T07:13:27.846Z,3.65
2022-09-24T07:15:54.992Z,3.47
2022-09-24T07:18:22.483Z,4.30
2022-09-24T07:20:53.796Z,4.75
2022-09-24T07:23:21.960Z,4.68
2022-09-24T07:25:50.153Z,2.17
2022-09-24T07:28:17.997Z,3.53
2022-09-24T07:30:58.031Z,3.63
2022-09-24T07:33:25.302Z,5.97
2022-09-24T07:35:52.079Z,7.88
2022-09-24T07:38:19.540Z,5.07
2022-09-24T07:41:00.938Z,4.03
2022-09-24T07:43:28.262Z,6.10
2022-09-24T07:45:55.840Z,4.47
2022-09-24T07:48:22.782Z,4.13
2022-09-24T07:50:51.361Z,2.58
2022-09-24T07:53:18.291Z,7.65
2022-09-24T07:55:45.653Z,3.40
2022-09-24T07:58:14.305Z,5.30
2022-09-24T08:03:23.940Z,5.07
2022-09-24T08:05:50.810Z,5.50
2022-09-24T08:08:19.848Z,4.10
2022-09-24T08:10:54.402Z,3.88
2022-09-24T08:13:26.723Z,3.50
2022-09-24T08:16:02.428Z,5.70
2022-09-24T08:18:31.912Z,4.32
2022-09-24T08:21:03.124Z,8.35
2022-09-24T08:23:30.628Z,7.20
2022-09-24T08:25:57.570Z,7.45
2022-09-24T08:28:24.583Z,5.82
2022-09-24T08:30:51.742Z,2.90
2022-09-24T08:33:18.678Z,6.07
2022-09-24T08:35:45.575Z,3.35
2022-09-24T08:38:12.388Z,5.25
2022-09-24T08:41:05.641Z,5.30
2022-09-24T08:46:22.493Z,3.40
2022-09-24T08:51:46.201Z,8.25
2022-09-24T08:54:15.063Z,4.00
2022-09-24T08:56:46.651Z,1.58
2022-09-24T08:59:30.707Z,4.72
2022-09-24T09:02:35.811Z,5.18
2022-09-24T09:05:11.412Z,4.80
2022-09-24T09:07:48.622Z,4.15
2022-09-24T09:10:19.629Z,4.20
2022-09-24T09:12:57.431Z,5.43
2022-09-24T09:15:38.204Z,5.05
2022-09-24T09:18:24.274Z,7.68
2022-09-24T09:21:04.632Z,4.97
2022-09-24T09:23:51.838Z,3.42
2022-09-24T09:26:20.479Z,2.92
2022-09-24T09:28:48.488Z,2.88
2022-09-24T09:31:37.702Z,4.93
2022-09-24T09:34:31.887Z,5.15
2022-09-24T09:37:24.901Z,4.65
2022-09-24T09:40:31.993Z,4.40
2022-09-24T09:43:05.355Z,4.53
2022-09-24T09:45:48.174Z,2.95
2022-09-24T09:48:16.974Z,3.50
2022-09-24T09:50:59.936Z,1.85
2022-09-24T09:53:31.659Z,4.45
2022-09-24T09:56:03.990Z,4.30
2022-09-24T09:58:36.446Z,2.78
2022-09-24T10:01:13.336Z,1.42
2022-09-24T10:03:50.609Z,4.07
2022-09-24T10:06:30.031Z,1.23
2022-09-24T10:09:16.184Z,3.50
2022-09-24T10:11:43.441Z,3.10
2022-09-24T10:14:15.156Z,2.60
2022-09-24T10:16:46.853Z,2.80
2022-09-24T10:19:25.077Z,1.63
2022-09-24T10:21:55.182Z,2.03
2022-09-24T10:24:28.253Z,5.45
2022-09-24T10:26:55.276Z,1.17
2022-09-24T10:29:52.789Z,2.80
2022-09-24T10:32:22.876Z,2.08
2022-09-24T10:35:00.707Z,1.73
2022-09-24T10:37:28.766Z,3.50
2022-09-24T10:40:25.971Z,2.88
2022-09-24T10:43:04.495Z,2.53
2022-09-24T10:45:51.554Z,4.25
2022-09-24T10:48:27.157Z,0.73
2022-09-24T10:51:13.788Z,3.47
2022-09-24T10:54:15.914Z,2.00
2022-09-24T10:56:52.002Z,2.00
2022-09-24T10:59:46.919Z,2.45
2022-09-24T11:02:13.999Z,2.13
2022-09-24T11:05:15.647Z,2.75
2022-09-24T11:08:02.429Z,3.33
2022-09-24T11:10:36.142Z,3.45
2022-09-24T11:13:11.998Z,1.48
2022-09-24T11:16:09.356Z,0.85
2022-09-24T11:18:58.240Z,2.13
2022-09-24T11:21:53.742Z,2.75
2022-09-24T11:24:48.135Z,4.43
2022-09-24T11:27:57.382Z,3.35
2022-09-24T11:30:41.039Z,1.85
2022-09-24T11:33:07.825Z,3.78
2022-09-24T11:35:53.268Z,2.15
2022-09-24T11:38:31.191Z,3.40
2022-09-24T11:41:21.528Z,1.85
2022-09-24T11:44:10.344Z,2.40
2022-09-24T11:46:47.479Z,3.65
2022-09-24T11:49:48.574Z,4.57
2022-09-24T11:52:25.972Z,2.50
2022-09-24T11:54:58.555Z,1.98
2022-09-24T11:57:30.209Z,4.63
2022-09-24T12:00:08.999Z,1.88
2022-09-24T12:02:38.765Z,1.33
2022-09-24T12:05:14.369Z,3.67
2022-09-24T12:07:55.910Z,2.45
2022-09-24T12:10:33.444Z,1.65
2022-09-24T12:13:06.020Z,1.65
2022-09-24T12:15:52.451Z,2.67
2022-09-24T12:19:07.246Z,3.38
2022-09-24T12:21:40.820Z,1.95
2022-09-24T12:24:13.795Z,1.65
2022-09-24T12:26:42.220Z,1.60
2022-09-24T12:29:50.362Z,1.75
2022-09-24T12:32:56.293Z,2.60
2022-09-24T12:35:29.091Z,3.80
2022-09-24T12:41:03.151Z,1.27
2022-09-24T12:43:57.580Z,1.17
2022-09-24T12:46:43.045Z,3.40
2022-09-24T12:49:37.540Z,1.10
2022-09-24T12:52:23.723Z,1.20
2022-09-24T12:55:00.117Z,1.55
2022-09-24T12:57:33.281Z,1.33
2022-09-24T13:00:02.673Z,1.20
2022-09-24T13:02:43.284Z,0.63
2022-09-24T13:05:29.548Z,2.47
2022-09-24T13:08:24.894Z,3.80
2022-09-24T13:11:05.996Z,0.73
2022-09-24T13:13:44.387Z,0.88
2022-09-24T13:16:20.814Z,1.13
2022-09-24T13:18:57.240Z,2.35
2022-09-24T13:21:29.659Z,2.03
2022-09-24T13:23:57.324Z,2.05
2022-09-24T13:26:30.946Z,1.08
2022-09-24T13:29:01.135Z,4.07
2022-09-24T13:31:36.059Z,1.15
2022-09-24T13:34:28.669Z,0.98
2022-09-24T13:37:02.894Z,1.75
2022-09-24T13:39:52.260Z,0.45
2022-09-24T13:42:37.816Z,2.33
2022-09-24T13:45:17.401Z,1.13
2022-09-24T13:47:59.605Z,0.55
2022-09-24T13:50:32.786Z,2.33
2022-09-24T13:53:06.811Z,1.65
2022-09-24T13:55:39.671Z,0.60
2022-09-24T13:58:26.077Z,0.38
2022-09-24T14:00:55.286Z,3.50
2022-09-24T14:03:26.568Z,1.90
2022-09-24T14:05:53.595Z,1.05
2022-09-24T14:08:25.601Z,4.25
2022-09-24T14:11:24.924Z,2.40
2022-09-24T14:13:52.419Z,1.95
2022-09-24T14:16:22.014Z,2.75
2022-09-24T14:18:49.853Z,1.77
2022-09-24T14:21:21.082Z,2.95
2022-09-24T14:24:02.065Z,2.47
2022-09-24T14:26:47.098Z,3.53
2022-09-24T14:29:22.774Z,2.65
2022-09-24T14:31:55.282Z,3.47
2022-09-24T14:34:40.818Z,4.15
2022-09-24T14:37:12.495Z,3.92
2022-09-24T14:39:43.768Z,1.58
2022-09-24T14:42:33.480Z,1.65
2022-09-24T14:45:04.659Z,1.17
2022-09-24T14:47:34.048Z,1.55
2022-09-24T14:50:04.233Z,0.63
2022-09-24T14:52:32.743Z,2.55
2022-09-24T14:55:18.663Z,0.75
2022-09-24T14:57:49.602Z,2.20
2022-09-24T15:00:27.032Z,0.85
2022-09-24T15:02:58.375Z,1.88
2022-09-24T15:05:29.948Z,1.23
2022-09-24T15:08:19.071Z,2.05
2022-09-24T15:11:03.848Z,2.78
2022-09-24T15:13:37.258Z,2.22
2022-09-24T15:16:32.169Z,1.05
2022-09-24T15:19:14.430Z,1.73
2022-09-24T15:21:41.747Z,0.50
2022-09-24T15:24:10.200Z,2.97
2022-09-24T15:26:41.169Z,2.55
2022-09-24T15:29:08.208Z,1.42
2022-09-24T15:31:35.265Z,0.75
2022-09-24T15:34:02.567Z,2.28
2022-09-24T15:36:29.478Z,0.80
2022-09-24T15:39:08.814Z,2.78
2022-09-24T15:41:36.349Z,3.33
2022-09-24T15:44:03.246Z,2.00
2022-09-24T15:46:33.038Z,2.13
2022-09-24T15:49:00.115Z,1.35
2022-09-24T15:51:26.909Z,5.88
2022-09-24T15:53:53.792Z,2.97
2022-09-24T15:56:23.552Z,5.93
2022-09-24T15:58:51.088Z,1.60
2022-09-24T16:01:19.067Z,2.15
2022-09-24T16:03:46.204Z,1.35
2022-09-24T16:06:14.375Z,0.90
2022-09-24T16:08:42.598Z,0.90
2022-09-24T16:11:09.917Z,2.28
2022-09-24T16:13:37.137Z,0.95
2022-09-24T16:16:08.258Z,1.85
2022-09-24T16:18:38.759Z,0.40
2022-09-24T16:21:07.719Z,0.90
2022-09-24T16:23:34.661Z,2.70
2022-09-24T16:26:01.981Z,2.22
2022-09-24T16:28:29.860Z,2.03
2022-09-24T16:30:56.927Z,0.68
2022-09-24T16:33:24.113Z,1.00
2022-09-24T16:35:51.081Z,0.55
2022-09-24T16:38:22.772Z,1.05
2022-09-24T16:41:00.146Z,1.83
2022-09-24T16:43:27.013Z,3.20
2022-09-24T16:45:53.896Z,2.50
2022-09-24T16:48:37.558Z,0.82
2022-09-24T16:54:28.963Z,1.20
2022-09-24T16:57:03.853Z,3.00
2022-09-24T16:59:41.251Z,10.40
2022-09-24T17:02:17.085Z,5.10
2022-09-24T17:04:59.316Z,2.70
2022-09-24T17:07:39.719Z,2.28
2022-09-24T17:10:23.275Z,1.27
2022-09-24T17:13:12.920Z,1.60
2022-09-24T17:15:40.017Z,1.50
2022-09-24T17:18:07.558Z,4.03
2022-09-24T17:20:44.815Z,2.47
2022-09-24T17:23:11.656Z,1.63
2022-09-24T17:25:38.533Z,1.98
2022-09-24T17:28:05.900Z,1.88
2022-09-24T17:30:33.179Z,2.60
2022-09-24T17:33:00.092Z,2.25
2022-09-24T17:35:27.074Z,2.88
2022-09-24T17:37:55.755Z,2.42
2022-09-24T17:40:24.371Z,1.65
2022-09-24T17:42:51.934Z,0.88
2022-09-24T17:45:18.938Z,2.60
2022-09-24T17:47:59.034Z,2.33
2022-09-24T17:50:26.509Z,1.90
2022-09-24T17:52:54.759Z,2.90
2022-09-24T17:55:21.727Z,3.42
2022-09-24T17:57:48.862Z,2.10
2022-09-24T18:00:15.989Z,3.90
2022-09-24T18:02:42.912Z,3.13
2022-09-24T18:05:11.243Z,4.00
2022-09-24T18:07:38.905Z,1.15
2022-09-24T18:10:06.193Z,2.05
2022-09-24T18:12:33.577Z,2.22
2022-09-24T18:15:00.497Z,2.78
2022-09-24T18:17:27.501Z,1.55
2022-09-24T18:19:54.335Z,4.88
2022-09-24T18:22:21.388Z,5.18
2022-09-24T18:24:48.316Z,1.65
2022-09-24T18:27:16.305Z,3.22
2022-09-24T18:29:44.605Z,2.63
2022-09-24T18:32:22.095Z,1.50
2022-09-24T18:34:48.920Z,1.90
2022-09-24T18:37:15.766Z,2.20
2022-09-24T18:39:42.695Z,2.65
2022-09-24T18:42:09.492Z,1.52
2022-09-24T18:44:36.921Z,2.05
2022-09-24T18:47:04.146Z,2.10
2022-09-24T18:49:30.995Z,1.67
2022-09-24T18:51:57.887Z,3.30
2022-09-24T18:54:24.970Z,2.47
2022-09-24T18:56:51.915Z,2.88
2022-09-24T18:59:21.573Z,2.22
2022-09-24T19:01:51.060Z,1.83
2022-09-24T19:04:18.799Z,1.05
2022-09-24T19:06:48.467Z,1.33
2022-09-24T19:09:20.602Z,5.47
2022-09-24T19:11:49.252Z,1.90
2022-09-24T19:14:18.667Z,1.15
2022-09-24T19:16:46.309Z,1.23
2022-09-24T19:19:13.244Z,1.63
2022-09-24T19:21:40.959Z,3.20
2022-09-24T19:24:10.054Z,1.17
2022-09-24T19:26:37.329Z,3.45
2022-09-24T19:29:05.424Z,1.70
2022-09-24T19:31:45.802Z,3.22
2022-09-24T19:34:14.959Z,4.20
2022-09-24T19:36:44.367Z,2.92
2022-09-24T19:39:14.820Z,2.40
2022-09-24T19:41:42.610Z,2.50
2022-09-24T19:44:09.719Z,3.45
2022-09-24T19:46:37.670Z,4.25
2022-09-24T19:49:04.550Z,5.70
2022-09-24T19:51:33.417Z,3.70
2022-09-24T19:54:02.653Z,4.45
2022-09-24T19:56:30.127Z,2.75
2022-09-24T19:59:00.385Z,2.78
2022-09-24T20:01:30.102Z,2.45
2022-09-24T20:03:58.491Z,2.65
2022-09-24T20:06:29.323Z,1.83
2022-09-24T20:08:59.682Z,4.30
2022-09-24T20:11:27.397Z,1.15
2022-09-24T20:13:56.239Z,1.30
2022-09-24T20:16:26.617Z,5.65
2022-09-24T20:18:58.029Z,4.47
2022-09-24T20:21:27.887Z,2.22
2022-09-24T20:23:56.991Z,3.97
2022-09-24T20:26:43.098Z,5.60
2022-09-24T20:29:13.340Z,2.70
2022-09-24T20:31:55.680Z,3.22
2022-09-24T20:34:34.071Z,3.25
2022-09-24T20:37:02.603Z,3.05
2022-09-24T20:39:29.677Z,5.13
2022-09-24T20:42:06.314Z,1.73
2022-09-24T20:44:34.018Z,3.88
2022-09-24T20:47:01.219Z,3.80
2022-09-24T20:49:28.316Z,2.33
2022-09-24T20:51:57.799Z,3.90
2022-09-24T20:54:26.714Z,2.45
2022-09-24T20:56:53.756Z,1.70
2022-09-24T20:59:20.719Z,3.58
2022-09-24T21:01:49.663Z,4.15
2022-09-24T21:04:17.565Z,3.42
2022-09-24T21:06:44.463Z,2.47
2022-09-24T21:09:11.272Z,2.50
2022-09-24T21:11:38.562Z,5.40
2022-09-24T21:14:30.130Z,3.17
2022-09-24T21:16:57.025Z,3.08
2022-09-24T21:19:25.137Z,3.92
2022-09-24T21:22:03.239Z,3.70
2022-09-24T21:24:31.544Z,1.70
2022-09-24T21:26:59.652Z,2.90
2022-09-24T21:29:26.803Z,2.55
2022-09-24T21:31:53.629Z,1.55
2022-09-24T21:34:21.674Z,3.15
2022-09-24T21:36:48.746Z,7.35
2022-09-24T21:39:20.474Z,4.55
2022-09-24T21:42:02.897Z,4.43
2022-09-24T21:44:34.337Z,6.65
2022-09-24T21:47:01.774Z,5.65
2022-09-24T21:49:29.601Z,3.85
2022-09-24T21:51:57.709Z,5.88
2022-09-24T21:54:24.626Z,4.40
2022-09-24T21:56:54.634Z,2.38
2022-09-24T21:59:40.417Z,2.72
2022-09-24T22:02:10.274Z,3.10
2022-09-24T22:04:42.999Z,2.65
2022-09-24T22:07:10.223Z,3.03
2022-09-24T22:09:37.158Z,1.70
2022-09-24T22:12:07.773Z,1.52
2022-09-24T22:14:35.070Z,5.07
2022-09-24T22:17:04.459Z,1.52
2022-09-24T22:19:31.839Z,3.85
2022-09-24T22:22:03.281Z,2.95
2022-09-24T22:24:30.232Z,5.13
2022-09-24T22:26:57.296Z,2.10
2022-09-24T22:29:24.236Z,5.18
2022-09-24T22:31:51.113Z,4.57
2022-09-24T22:34:36.350Z,2.72
2022-09-24T22:37:07.144Z,4.78
2022-09-24T22:39:34.882Z,6.45
2022-09-24T22:42:09.387Z,4.00
2022-09-24T22:44:38.978Z,3.53
2022-09-24T22:47:06.212Z,3.65
2022-09-24T22:49:34.429Z,3.60
2022-09-24T22:52:03.661Z,2.83
2022-09-24T22:54:30.748Z,4.72
2022-09-24T22:56:57.677Z,3.03
2022-09-24T22:59:24.624Z,4.43
2022-09-24T23:01:51.575Z,7.32
2022-09-24T23:04:18.573Z,3.17
2022-09-24T23:06:45.469Z,4.70
2022-09-24T23:09:12.678Z,4.10
2022-09-24T23:11:44.707Z,5.05
2022-09-24T23:14:15.643Z,7.30
2022-09-24T23:16:43.524Z,4.43
2022-09-24T23:19:18.545Z,7.18
2022-09-24T23:21:46.123Z,1.75
2022-09-24T23:24:16.605Z,4.07
2022-09-24T23:26:49.102Z,7.70
2022-09-24T23:29:21.219Z,4.22
2022-09-24T23:31:50.079Z,2.75
2022-09-24T23:34:20.000Z,5.28
2022-09-24T23:36:47.390Z,4.22
2022-09-24T23:39:16.763Z,5.95
2022-09-24T23:41:46.110Z,2.58
2022-09-24T23:44:13.362Z,4.15
2022-09-24T23:46:42.373Z,6.70
2022-09-24T23:49:15.166Z,3.88
2022-09-24T23:51:42.469Z,6.40
2022-09-24T23:54:11.108Z,6.18
2022-09-24T23:56:39.008Z,3.47
2022-09-24T23:59:10.290Z,4.88
